Time;durP1;ratioP1;P1;durP2;ratioP2;P2;SDS_P1;SDS_P2;PMS_P1;PMS_P2;Temp;Humidity;BMP_temperature;BMP_pressure;BME280_temperature;BME280_humidity;BME280_pressure;Samples;Min_cycle;Max_cycle;Signal;HPM_P1;HPM_P2
2023/09/15 00:00:11;;;;;;;4.60;1.83;;;;;;;14.16;84.00;101208.00;4989534;28;20208;-82
2023/09/15 00:02:37;;;;;;;2.60;1.30;;;;;;;14.02;83.37;101219.66;4988086;28;20213;-82
2023/09/15 00:05:07;;;;;;;2.00;1.50;;;;;;;13.99;83.10;101218.84;4988310;28;20232;-79
2023/09/15 00:07:33;;;;;;;4.70;1.83;;;;;;;13.95;83.37;101225.06;4988858;28;20241;-83
2023/09/15 00:10:00;;;;;;;1.63;1.20;;;;;;;13.94;83.25;101226.84;4988369;28;20204;-81
2023/09/15 00:12:28;;;;;;;3.63;1.63;;;;;;;13.92;84.34;101209.41;4988479;28;20716;-82
2023/09/15 00:14:54;;;;;;;2.23;1.27;;;;;;;13.90;84.67;101196.31;4988166;28;20698;-82
2023/09/15 00:17:20;;;;;;;2.80;1.47;;;;;;;13.77;84.93;101194.81;4988607;28;20210;-80
2023/09/15 00:19:47;;;;;;;1.87;1.20;;;;;;;13.83;85.21;101177.16;4988337;28;20227;-80
2023/09/15 00:22:13;;;;;;;5.33;1.30;;;;;;;13.82;84.13;101187.72;4988205;28;20203;-82
2023/09/15 00:24:40;;;;;;;3.13;1.60;;;;;;;13.80;83.58;101198.25;4987476;28;20718;-83
2023/09/15 00:27:07;;;;;;;2.80;1.50;;;;;;;13.70;84.86;101189.69;4994819;28;20215;-83
2023/09/15 00:29:35;;;;;;;2.90;1.53;;;;;;;13.69;85.69;101168.72;4989785;28;20212;-81
2023/09/15 00:32:01;;;;;;;3.60;1.43;;;;;;;13.73;85.79;101159.88;4988227;28;20204;-83
2023/09/15 00:34:28;;;;;;;1.60;1.50;;;;;;;13.80;85.14;101173.78;4987036;28;20237;-82
2023/09/15 00:36:54;;;;;;;4.73;1.77;;;;;;;13.76;84.97;101177.34;4988215;28;20275;-82
2023/09/15 00:39:23;;;;;;;3.17;1.60;;;;;;;13.80;84.90;101174.63;4987751;28;20215;-82
2023/09/15 00:41:49;;;;;;;2.73;1.77;;;;;;;13.68;84.20;101190.63;4987536;28;20212;-82
2023/09/15 00:44:15;;;;;;;3.43;2.13;;;;;;;13.68;83.45;101206.38;4986540;28;20231;-83
2023/09/15 00:46:43;;;;;;;3.23;1.87;;;;;;;13.69;83.48;101210.69;4988355;28;20212;-81
2023/09/15 00:49:10;;;;;;;4.17;2.17;;;;;;;13.61;83.51;101223.97;4987366;28;20218;-84
2023/09/15 00:51:36;;;;;;;2.30;1.80;;;;;;;13.59;83.01;101219.66;4988253;28;20210;-82
2023/09/15 00:54:04;;;;;;;4.00;1.70;;;;;;;13.53;83.93;101225.88;4987567;28;20251;-80
2023/09/15 00:56:30;;;;;;;3.67;1.97;;;;;;;13.51;84.26;101202.28;4987828;28;20227;-83
2023/09/15 00:58:56;;;;;;;1.87;1.50;;;;;;;13.51;84.37;101204.06;4988062;28;20215;-83
2023/09/15 01:01:23;;;;;;;3.63;1.90;;;;;;;13.51;83.87;101204.91;4987804;28;20208;-83
2023/09/15 01:03:52;;;;;;;3.43;1.70;;;;;;;13.51;83.35;101211.91;4985779;28;20599;-81
2023/09/15 01:06:20;;;;;;;4.23;1.70;;;;;;;13.45;83.87;101206.78;4987656;28;20675;-83
2023/09/15 01:08:48;;;;;;;3.70;1.63;;;;;;;13.50;83.61;101200.56;4979831;28;20207;-82
2023/09/15 01:11:14;;;;;;;3.63;1.80;;;;;;;13.52;84.21;101195.31;4987778;28;20207;-83
2023/09/15 01:13:40;;;;;;;3.50;1.70;;;;;;;13.50;85.10;101176.97;4987304;28;20263;-83
2023/09/15 01:16:13;;;;;;;3.77;2.10;;;;;;;13.50;85.88;101163.00;4994410;28;20211;-80
2023/09/15 01:18:46;;;;;;;2.83;1.90;;;;;;;13.45;86.40;101141.22;4988384;28;20247;-82
2023/09/15 01:21:54;;;;;;;3.17;1.97;;;;;;;13.47;86.01;101147.31;4987781;28;20271;-81
2023/09/15 01:24:40;;;;;;;4.50;2.10;;;;;;;13.45;84.75;101163.06;4986298;28;20295;-81
2023/09/15 01:27:39;;;;;;;3.27;1.67;;;;;;;13.43;83.72;101184.97;4988479;28;20279;-83
2023/09/15 01:30:08;;;;;;;2.40;1.70;;;;;;;13.45;83.50;101186.66;4984125;28;20218;-81
2023/09/15 01:32:35;;;;;;;3.17;1.80;;;;;;;13.43;83.33;101201.56;4989957;28;20208;-82
2023/09/15 01:35:04;;;;;;;1.63;1.53;;;;;;;13.42;82.57;101212.97;4993832;28;20296;-82
2023/09/15 01:37:31;;;;;;;1.93;1.67;;;;;;;13.27;83.48;101221.94;4987875;28;20258;-82
2023/09/15 01:39:59;;;;;;;2.03;1.77;;;;;;;13.31;83.71;101212.28;4987483;28;20204;-79
2023/09/15 01:42:25;;;;;;;4.73;1.87;;;;;;;13.25;83.48;101213.22;4987509;28;20215;-82
2023/09/15 01:44:52;;;;;;;2.43;1.63;;;;;;;13.17;83.15;101217.72;4987943;28;20228;-81
2023/09/15 01:47:21;;;;;;;2.67;1.83;;;;;;;13.25;83.48;101207.97;4994324;28;20212;-83
2023/09/15 01:49:51;;;;;;;2.27;1.60;;;;;;;13.16;84.64;101196.78;4986229;28;20208;-82
2023/09/15 01:52:18;;;;;;;1.57;1.47;;;;;;;13.14;84.56;101181.09;4994183;28;20205;-82
2023/09/15 01:54:46;;;;;;;3.40;1.80;;;;;;;13.16;84.75;101166.22;4993415;28;20235;-82
2023/09/15 01:57:12;;;;;;;3.07;2.03;;;;;;;13.13;84.26;101171.50;4993852;28;20210;-81
2023/09/15 01:59:39;;;;;;;3.00;1.50;;;;;;;13.06;84.08;101181.25;4993452;28;20234;-81
2023/09/15 02:02:05;;;;;;;2.03;1.80;;;;;;;12.98;84.17;101179.63;4993552;28;20283;-80
2023/09/15 02:04:33;;;;;;;3.17;1.97;;;;;;;12.97;84.18;101184.00;4993189;28;20262;-82
2023/09/15 02:06:59;;;;;;;2.57;1.80;;;;;;;12.93;83.88;101181.47;4994255;28;20255;-83
2023/09/15 02:09:26;;;;;;;3.93;1.87;;;;;;;12.87;83.93;101172.81;4993980;28;20200;-83
2023/09/15 02:11:52;;;;;;;3.60;1.63;;;;;;;12.91;83.86;101171.88;4993618;28;20207;-82
2023/09/15 02:14:19;;;;;;;2.27;2.00;;;;;;;12.91;84.33;101166.63;4993258;28;20227;-83
2023/09/15 02:16:45;;;;;;;3.23;1.77;;;;;;;12.88;84.33;101166.69;4997072;28;20213;-82
2023/09/15 02:19:12;;;;;;;6.53;2.40;;;;;;;12.80;84.79;101158.06;4995259;28;20211;-82
2023/09/15 02:21:39;;;;;;;1.80;1.70;;;;;;;12.85;85.34;101153.63;4993337;28;20227;-82
2023/09/15 02:24:06;;;;;;;3.17;1.80;;;;;;;12.90;85.40;101143.06;4993384;28;20842;-81
2023/09/15 02:26:33;;;;;;;3.10;1.80;;;;;;;12.86;86.16;101130.91;4994422;28;20204;-83
2023/09/15 02:28:59;;;;;;;2.20;1.93;;;;;;;12.79;86.38;101119.69;4993887;28;20204;-83
2023/09/15 02:31:26;;;;;;;4.47;1.97;;;;;;;12.87;87.13;101103.81;4993900;28;20215;-82
2023/09/15 02:33:52;;;;;;;4.23;1.70;;;;;;;12.93;87.58;101081.91;4986479;28;20226;-80
2023/09/15 02:36:19;;;;;;;2.40;1.70;;;;;;;12.87;87.55;101075.88;5001597;28;20222;-83
2023/09/15 02:38:47;;;;;;;2.30;1.80;;;;;;;12.85;86.34;101093.38;4997637;28;20218;-83
2023/09/15 02:41:13;;;;;;;2.70;2.30;;;;;;;12.80;85.85;101115.28;4998961;28;20201;-83
2023/09/15 02:43:40;;;;;;;2.13;1.70;;;;;;;12.75;84.77;101138.09;4993420;28;20242;-83
2023/09/15 02:46:07;;;;;;;2.77;1.50;;;;;;;12.72;85.29;101131.13;4993575;28;20564;-82
2023/09/15 02:48:34;;;;;;;2.43;1.47;;;;;;;12.85;86.10;101121.34;4994156;28;20746;-82
2023/09/15 02:51:00;;;;;;;2.27;1.70;;;;;;;12.79;86.01;101116.19;4994146;28;20211;-82
2023/09/15 02:53:27;;;;;;;2.87;1.43;;;;;;;12.73;86.47;101129.41;4993506;28;20240;-83
2023/09/15 02:55:59;;;;;;;2.57;1.90;;;;;;;12.77;86.05;101123.22;4993793;28;20220;-82
2023/09/15 02:58:26;;;;;;;1.97;1.60;;;;;;;12.76;86.30;101124.09;4991678;28;20243;-82
2023/09/15 03:00:52;;;;;;;2.80;1.80;;;;;;;12.73;86.65;101111.94;4990499;28;20207;-83
2023/09/15 03:03:19;;;;;;;4.47;1.77;;;;;;;12.77;85.44;101121.47;4990622;28;20241;-83
2023/09/15 03:05:46;;;;;;;1.83;1.70;;;;;;;12.78;86.07;101130.19;4991409;28;20286;-81
2023/09/15 03:08:14;;;;;;;3.53;2.10;;;;;;;12.81;85.66;101125.75;4999966;28;20204;-79
2023/09/15 03:10:41;;;;;;;2.33;2.10;;;;;;;12.83;86.08;101125.75;5007825;28;20225;-81
2023/09/15 03:13:08;;;;;;;2.90;2.30;;;;;;;12.70;86.50;101117.19;4999390;28;20292;-82
2023/09/15 03:15:38;;;;;;;2.40;2.17;;;;;;;12.75;85.65;101118.00;4999764;28;20216;-82
2023/09/15 03:18:05;;;;;;;3.13;1.90;;;;;;;12.68;85.79;101135.56;4991810;28;20296;-79
2023/09/15 03:20:32;;;;;;;2.83;2.40;;;;;;;12.61;85.61;101135.72;4986881;28;20216;-81
2023/09/15 03:22:59;;;;;;;3.73;2.03;;;;;;;12.62;85.47;101132.19;4990155;28;20214;-81
2023/09/15 03:25:26;;;;;;;2.23;1.83;;;;;;;12.57;85.70;101128.78;4990572;28;20265;-82
2023/09/15 03:27:53;;;;;;;2.63;2.00;;;;;;;12.61;85.26;101133.09;4989541;28;20238;-83
2023/09/15 03:30:21;;;;;;;3.43;2.13;;;;;;;12.59;85.23;101133.09;4989539;28;20223;-82
2023/09/15 03:32:47;;;;;;;4.77;2.10;;;;;;;12.53;85.67;101122.72;4989329;28;20217;-82
2023/09/15 03:35:14;;;;;;;4.07;2.17;;;;;;;12.50;85.99;101113.16;4989236;28;20238;-82
2023/09/15 03:37:40;;;;;;;2.50;2.30;;;;;;;12.55;85.63;101120.06;4996984;28;20223;-81
2023/09/15 03:40:08;;;;;;;4.57;2.13;;;;;;;12.60;84.97;101124.34;4988848;28;20203;-81
2023/09/15 03:42:35;;;;;;;2.83;2.20;;;;;;;12.60;84.90;101128.72;4989573;28;20250;-82
2023/09/15 03:45:02;;;;;;;3.10;2.07;;;;;;;12.57;85.51;101127.03;4989495;28;20254;-81
2023/09/15 03:47:30;;;;;;;2.70;2.37;;;;;;;12.49;85.31;101126.28;4989280;28;20211;-82
2023/09/15 03:49:57;;;;;;;3.57;2.23;;;;;;;12.45;85.53;101122.00;4989317;28;20274;-81
2023/09/15 03:52:23;;;;;;;3.23;1.90;;;;;;;12.51;85.00;101119.28;4989693;28;20207;-84
2023/09/15 03:54:50;;;;;;;3.60;2.03;;;;;;;12.52;84.99;101118.38;4988918;28;20232;-82
2023/09/15 03:57:16;;;;;;;3.03;2.43;;;;;;;12.44;85.97;101121.09;4989620;28;20295;-82
2023/09/15 03:59:43;;;;;;;2.83;2.40;;;;;;;12.42;85.08;101116.78;4989382;28;20212;-81
2023/09/15 04:02:09;;;;;;;2.90;2.67;;;;;;;12.41;84.87;101123.78;4997377;28;20225;-81
2023/09/15 04:04:39;;;;;;;3.63;2.90;;;;;;;12.33;85.87;101117.81;4989156;28;20262;-84
2023/09/15 04:07:05;;;;;;;4.57;3.07;;;;;;;12.37;84.92;101124.72;4989826;28;20208;-80
2023/09/15 04:09:32;;;;;;;4.73;3.20;;;;;;;12.31;86.21;101115.22;4988154;28;20212;-83
2023/09/15 04:11:58;;;;;;;3.77;3.23;;;;;;;12.30;86.20;101095.13;4989105;28;20234;-82
2023/09/15 04:14:25;;;;;;;3.07;2.70;;;;;;;12.35;86.43;101088.97;4988505;28;20228;-83
2023/09/15 04:16:52;;;;;;;2.67;2.47;;;;;;;12.22;87.84;101069.97;4988865;28;20217;-79
2023/09/15 04:19:19;;;;;;;2.50;2.30;;;;;;;12.22;86.72;101069.97;4988968;28;20203;-83
2023/09/15 04:21:47;;;;;;;3.83;2.70;;;;;;;12.25;86.31;101076.03;4989257;28;20238;-80
2023/09/15 04:24:13;;;;;;;3.33;2.80;;;;;;;12.21;86.26;101084.84;4986751;28;20228;-83
2023/09/15 04:26:40;;;;;;;3.20;2.90;;;;;;;12.15;86.99;101078.81;4988415;28;20219;-83
2023/09/15 04:29:07;;;;;;;2.93;2.57;;;;;;;12.21;87.57;101065.63;4989124;28;20210;-84
2023/09/15 04:31:37;;;;;;;4.37;3.23;;;;;;;12.24;86.80;101069.06;4988137;28;20222;-83
2023/09/15 04:34:03;;;;;;;3.90;3.43;;;;;;;12.24;86.49;101081.28;4987763;28;20227;-83
2023/09/15 04:36:30;;;;;;;3.97;3.23;;;;;;;12.25;86.23;101098.72;4987652;28;20559;-83
2023/09/15 04:38:58;;;;;;;3.60;2.90;;;;;;;12.23;86.38;101082.16;4988112;28;20219;-82
2023/09/15 04:41:25;;;;;;;5.00;2.90;;;;;;;12.21;86.47;101084.84;4987852;28;20643;-82
2023/09/15 04:43:53;;;;;;;5.23;2.90;;;;;;;12.19;86.52;101088.34;4988552;28;20232;-83
2023/09/15 04:46:20;;;;;;;4.37;3.17;;;;;;;12.11;86.35;101091.97;4994723;28;20223;-79
2023/09/15 04:48:46;;;;;;;4.27;2.27;;;;;;;12.07;86.88;101086.78;4982901;28;20208;-83
2023/09/15 04:51:12;;;;;;;3.40;3.00;;;;;;;12.05;86.17;101091.16;4988299;28;20203;-84
2023/09/15 04:53:39;;;;;;;3.90;2.70;;;;;;;12.11;86.20;101085.88;4988226;28;20252;-82
2023/09/15 04:56:07;;;;;;;2.57;2.27;;;;;;;12.05;87.01;101081.59;4989004;28;20208;-82
2023/09/15 04:58:34;;;;;;;3.90;2.77;;;;;;;12.08;86.35;101084.13;4988470;28;20208;-83
2023/09/15 05:01:03;;;;;;;2.40;2.00;;;;;;;12.05;86.67;101078.06;4987804;28;20220;-82
2023/09/15 05:03:30;;;;;;;2.67;2.47;;;;;;;12.03;86.93;101085.09;4987905;28;20282;-83
2023/09/15 05:05:57;;;;;;;2.90;2.57;;;;;;;12.00;86.33;101090.38;4987862;28;20247;-83
2023/09/15 05:08:23;;;;;;;3.90;2.40;;;;;;;12.07;85.81;101097.22;4988703;28;20675;-83
2023/09/15 05:10:50;;;;;;;4.67;2.10;;;;;;;11.97;85.70;101109.63;4989582;28;20203;-83
2023/09/15 05:13:18;;;;;;;3.30;1.97;;;;;;;11.97;86.33;101108.72;4988415;28;20235;-82
2023/09/15 05:15:44;;;;;;;3.67;2.40;;;;;;;11.98;86.47;101100.88;4989105;28;20203;-83
2023/09/15 05:18:11;;;;;;;3.93;2.37;;;;;;;12.02;86.36;101104.31;4988953;28;20210;-83
2023/09/15 05:20:37;;;;;;;3.47;2.07;;;;;;;12.03;86.30;101104.28;4987507;28;20204;-83
2023/09/15 05:23:04;;;;;;;2.10;1.90;;;;;;;12.04;86.56;101108.63;4979590;28;20208;-83
2023/09/15 05:25:30;;;;;;;2.10;2.00;;;;;;;12.06;86.32;101101.63;4988216;28;20227;-84
2023/09/15 05:27:57;;;;;;;3.10;1.97;;;;;;;12.08;86.52;101091.13;4987925;28;20222;-82
2023/09/15 05:30:25;;;;;;;3.77;2.17;;;;;;;12.14;86.38;101092.81;4988019;28;20269;-83
2023/09/15 05:32:51;;;;;;;3.83;2.20;;;;;;;12.15;86.69;101089.28;4987454;28;20642;-84
2023/09/15 05:35:18;;;;;;;3.83;2.07;;;;;;;12.10;87.06;101086.75;4987672;28;20257;-83
2023/09/15 05:37:44;;;;;;;3.93;2.20;;;;;;;12.21;87.42;101079.59;4995541;28;20206;-83
2023/09/15 05:40:11;;;;;;;3.37;2.47;;;;;;;12.22;86.67;101083.06;4988400;28;20204;-83
2023/09/15 05:42:38;;;;;;;3.47;2.30;;;;;;;12.24;87.35;101079.53;4997883;28;20206;-81
2023/09/15 05:45:05;;;;;;;3.97;2.33;;;;;;;12.28;88.20;101062.03;4988552;28;20228;-83
2023/09/15 05:47:33;;;;;;;3.33;2.70;;;;;;;12.27;88.44;101062.94;4988306;28;20233;-83
2023/09/15 05:50:04;;;;;;;3.13;2.20;;;;;;;12.31;88.36;101065.47;4988616;28;20246;-84
2023/09/15 05:52:30;;;;;;;2.97;2.67;;;;;;;12.34;88.15;101071.53;4990364;28;20262;-85
2023/09/15 05:54:57;;;;;;;2.00;1.73;;;;;;;12.38;87.51;101068.84;4988878;28;20223;-83
2023/09/15 05:57:23;;;;;;;4.17;2.13;;;;;;;12.41;87.54;101076.66;4993721;28;20202;-82
2023/09/15 05:59:50;;;;;;;2.83;2.63;;;;;;;12.44;88.23;101063.50;4989552;28;20256;-82
2023/09/15 06:02:18;;;;;;;2.40;2.20;;;;;;;12.46;88.34;101056.47;4988511;28;20243;-83
2023/09/15 06:04:48;;;;;;;2.50;2.30;;;;;;;12.47;89.24;101050.38;4987841;28;20235;-84
2023/09/15 06:07:15;;;;;;;4.30;2.40;;;;;;;12.54;89.46;101032.78;4993565;28;20254;-84
2023/09/15 06:09:41;;;;;;;2.70;2.50;;;;;;;12.62;89.78;101027.41;4997886;28;20198;-85
2023/09/15 06:12:08;;;;;;;2.63;2.43;;;;;;;12.63;89.51;101030.03;4990074;28;20184;-85
2023/09/15 06:14:37;;;;;;;2.87;2.63;;;;;;;12.64;89.61;101030.88;4997714;28;20274;-86
2023/09/15 06:17:03;;;;;;;4.43;2.73;;;;;;;12.63;89.90;101022.16;4998114;28;20211;-86
2023/09/15 06:19:30;;;;;;;4.30;3.23;;;;;;;12.61;90.58;101013.47;4997397;28;20216;-85
2023/09/15 06:21:58;;;;;;;3.90;3.27;;;;;;;12.68;90.44;100999.34;4997116;28;20208;-86
2023/09/15 06:24:24;;;;;;;3.73;2.93;;;;;;;12.75;90.28;101000.13;4996478;28;20220;-83
2023/09/15 06:26:52;;;;;;;3.30;3.00;;;;;;;12.67;90.59;100992.41;4986925;28;20278;-82
2023/09/15 06:29:19;;;;;;;3.33;3.03;;;;;;;12.75;90.65;100999.25;4986727;28;20303;-83
2023/09/15 06:31:45;;;;;;;3.27;2.97;;;;;;;12.83;91.10;100997.34;4995174;28;20204;-81
2023/09/15 06:34:12;;;;;;;4.00;3.13;;;;;;;12.84;91.54;100989.47;4988393;28;20231;-82
2023/09/15 06:36:39;;;;;;;2.77;2.50;;;;;;;12.89;91.43;100995.47;4987562;28;20242;-81
2023/09/15 06:39:07;;;;;;;3.77;2.80;;;;;;;12.94;91.24;100999.75;4987555;28;20216;-82
2023/09/15 06:41:34;;;;;;;3.37;2.83;;;;;;;12.95;91.17;100998.88;4988300;28;20212;-81
2023/09/15 06:44:00;;;;;;;4.53;3.27;;;;;;;12.99;90.91;100995.28;4998271;28;20302;-81
2023/09/15 06:46:27;;;;;;;3.60;3.30;;;;;;;13.03;90.98;100989.94;4998557;28;20234;-83
2023/09/15 06:48:53;;;;;;;4.57;2.63;;;;;;;12.94;92.78;100963.06;4990330;28;20220;-81
2023/09/15 06:51:20;;;;;;;2.87;2.57;;;;;;;12.99;92.97;100958.59;4986471;28;20235;-79
2023/09/15 06:53:46;;;;;;;3.80;3.40;;;;;;;12.91;94.35;100935.19;4984976;28;20241;-84
2023/09/15 06:56:14;;;;;;;4.90;2.67;;;;;;;12.96;94.31;100920.22;4992998;28;20291;-82
2023/09/15 06:58:40;;;;;;;4.53;2.93;;;;;;;12.99;94.83;100919.31;4991432;28;20693;-83
2023/09/15 07:01:07;;;;;;;4.00;2.87;;;;;;;12.96;95.68;100903.63;4983979;28;20203;-82
2023/09/15 07:03:33;;;;;;;3.20;2.77;;;;;;;13.03;95.84;100903.47;4983561;28;20617;-82
2023/09/15 07:06:00;;;;;;;4.10;2.50;;;;;;;13.11;95.58;100891.06;4986334;28;20239;-84
2023/09/15 07:08:27;;;;;;;2.30;2.10;;;;;;;13.18;95.52;100893.53;4979586;28;20634;-83
2023/09/15 07:10:53;;;;;;;3.13;2.40;;;;;;;13.18;95.73;100897.03;4982469;28;20578;-83
2023/09/15 07:13:21;;;;;;;3.73;2.40;;;;;;;13.22;95.58;100903.06;4980502;28;20224;-84
2023/09/15 07:15:48;;;;;;;7.97;2.93;;;;;;;13.15;97.01;100885.75;4980453;28;20200;-84
2023/09/15 07:18:15;;;;;;;2.90;1.87;;;;;;;13.17;97.73;100884.81;4977529;28;20235;-83
2023/09/15 07:20:41;;;;;;;4.70;2.30;;;;;;;13.13;98.52;100861.34;4969994;28;20683;-80
2023/09/15 07:23:07;;;;;;;2.67;2.20;;;;;;;13.09;99.96;100837.81;4976534;28;20203;-82
2023/09/15 07:25:34;;;;;;;3.20;2.10;;;;;;;13.15;100.00;100822.84;4974292;28;20228;-82
2023/09/15 07:28:00;;;;;;;4.83;2.30;;;;;;;13.22;100.00;100822.66;4974880;28;20902;-81
2023/09/15 07:30:28;;;;;;;3.43;2.53;;;;;;;13.02;100.00;100796.03;4975614;28;20211;-82
2023/09/15 07:32:55;;;;;;;4.13;3.73;;;;;;;13.09;100.00;100776.66;4975099;28;20609;-80
2023/09/15 07:35:22;;;;;;;6.13;5.57;;;;;;;13.04;100.00;100768.03;4976317;28;20211;-83
2023/09/15 07:37:48;;;;;;;7.40;5.50;;;;;;;13.11;100.00;100761.78;4972370;28;20212;-81
2023/09/15 07:40:17;;;;;;;5.97;5.23;;;;;;;13.27;100.00;100772.75;4972549;28;20215;-82
2023/09/15 07:42:44;;;;;;;6.00;5.23;;;;;;;13.40;100.00;100789.94;4974513;28;20214;-82
2023/09/15 07:45:10;;;;;;;5.97;5.47;;;;;;;13.32;100.00;100797.13;4975064;28;20231;-83
2023/09/15 07:47:38;;;;;;;6.60;4.90;;;;;;;13.55;100.00;100793.91;4974302;28;20295;-82
2023/09/15 07:50:06;;;;;;;6.40;5.53;;;;;;;13.55;100.00;100800.94;4977660;28;20200;-84
2023/09/15 07:52:33;;;;;;;6.23;5.53;;;;;;;13.33;100.00;100806.69;4980122;28;20246;-83
2023/09/15 07:54:59;;;;;;;12.63;6.73;;;;;;;13.36;100.00;100801.41;4972631;28;20224;-83
2023/09/15 07:57:26;;;;;;;6.10;5.70;;;;;;;13.40;100.00;100805.66;4975602;28;20562;-82
2023/09/15 07:59:52;;;;;;;6.33;5.77;;;;;;;13.59;100.00;100813.06;4974231;28;20205;-84
2023/09/15 08:02:20;;;;;;;6.33;5.77;;;;;;;13.73;100.00;100821.44;4975371;28;20215;-85
2023/09/15 08:04:48;;;;;;;5.97;5.37;;;;;;;13.90;100.00;100834.97;4975713;28;20307;-84
2023/09/15 08:07:15;;;;;;;7.23;5.67;;;;;;;14.03;100.00;100842.53;4979907;28;20227;-83
2023/09/15 08:09:41;;;;;;;4.93;4.53;;;;;;;14.07;100.00;100821.41;4974831;28;20279;-83
2023/09/15 08:12:08;;;;;;;6.17;5.20;;;;;;;14.10;100.00;100808.19;4972720;28;20211;-83
2023/09/15 08:14:34;;;;;;;8.77;5.00;;;;;;;14.13;100.00;100804.59;4973517;28;20715;-82
2023/09/15 08:17:01;;;;;;;6.83;5.27;;;;;;;14.20;100.00;100806.19;4973804;28;20208;-83
2023/09/15 08:19:28;;;;;;;6.23;5.60;;;;;;;14.36;100.00;100803.97;4971134;28;20593;-85
2023/09/15 08:21:59;;;;;;;7.97;6.07;;;;;;;14.46;100.00;100815.94;4969018;28;20235;-84
2023/09/15 08:24:25;;;;;;;6.13;5.53;;;;;;;14.62;100.00;100840.03;4974985;28;20216;-84
2023/09/15 08:26:51;;;;;;;9.03;6.80;;;;;;;14.68;100.00;100858.22;4982498;28;20311;-83
2023/09/15 08:29:18;;;;;;;8.13;5.93;;;;;;;14.82;100.00;100862.22;4972143;28;20215;-82
2023/09/15 08:31:44;;;;;;;5.77;5.27;;;;;;;14.92;100.00;100874.19;4980079;28;20223;-83
2023/09/15 08:34:12;;;;;;;6.20;5.70;;;;;;;14.99;100.00;100882.75;4983191;28;20235;-83
2023/09/15 08:36:38;;;;;;;6.87;5.20;;;;;;;15.06;100.00;100864.13;4984495;28;20242;-82
2023/09/15 08:39:06;;;;;;;7.73;5.57;;;;;;;15.13;100.00;100874.47;4979803;28;20219;-83
2023/09/15 08:41:39;;;;;;;6.10;5.50;;;;;;;15.17;100.00;100876.09;4979385;28;20204;-84
2023/09/15 08:44:06;;;;;;;6.10;5.60;;;;;;;15.31;100.00;100894.06;4986991;28;20227;-82
2023/09/15 08:46:34;;;;;;;5.20;4.80;;;;;;;15.43;96.86;100954.19;4289650;28;10000824;-82
2023/09/15 08:49:01;;;;;;;5.27;4.50;;;;;;;15.53;94.12;101008.22;4973584;28;20216;-82
2023/09/15 08:51:28;;;;;;;7.13;5.43;;;;;;;15.59;96.03;101000.16;4974168;28;20211;-83
2023/09/15 08:53:57;;;;;;;5.20;4.73;;;;;;;15.62;95.15;101017.63;4973807;28;20228;-84
2023/09/15 08:56:26;;;;;;;5.27;4.70;;;;;;;15.74;93.58;101040.97;4976293;28;20200;-83
2023/09/15 08:58:52;;;;;;;5.30;4.80;;;;;;;15.82;91.50;101073.19;4979070;28;20267;-85
2023/09/15 09:01:20;;;;;;;5.77;5.00;;;;;;;15.84;91.37;101094.22;4976609;28;20630;-85
2023/09/15 09:03:47;;;;;;;6.47;4.50;;;;;;;15.86;94.43;101051.13;4976909;28;20224;-82
2023/09/15 09:06:15;;;;;;;4.67;4.27;;;;;;;15.91;95.71;101014.09;4984467;28;20239;-84
2023/09/15 09:08:43;;;;;;;7.47;4.83;;;;;;;15.98;92.93;101046.38;4976675;28;20235;-84
2023/09/15 09:11:10;;;;;;;4.80;4.43;;;;;;;16.02;94.86;101019.91;4984159;28;20215;-84
2023/09/15 09:13:39;;;;;;;5.87;4.50;;;;;;;16.09;94.62;101023.19;4983949;28;20232;-83
2023/09/15 09:16:07;;;;;;;5.03;4.10;;;;;;;16.18;93.79;101022.03;4976357;28;20208;-83
2023/09/15 09:18:34;;;;;;;4.30;3.90;;;;;;;16.31;92.28;101033.00;4977017;28;20259;-85
2023/09/15 09:21:04;;;;;;;5.40;3.90;;;;;;;16.34;90.44;101065.41;4976766;28;20215;-82
2023/09/15 09:23:30;;;;;;;4.63;4.13;;;;;;;16.42;89.29;101094.13;4976783;28;20231;-84
2023/09/15 09:26:02;;;;;;;4.33;3.80;;;;;;;16.45;91.03;101071.19;4976221;28;20250;-85
2023/09/15 09:28:28;;;;;;;6.20;4.27;;;;;;;16.53;93.48;101034.03;4976688;28;20291;-84
2023/09/15 09:30:57;;;;;;;5.37;4.27;;;;;;;16.58;93.42;101011.00;4976728;28;20220;-84
2023/09/15 09:33:24;;;;;;;4.47;3.57;;;;;;;16.60;92.63;101016.22;4969853;28;20228;-84
2023/09/15 09:35:51;;;;;;;4.03;3.60;;;;;;;16.72;93.10;101015.78;4977606;28;20213;-83
2023/09/15 09:38:17;;;;;;;8.90;3.60;;;;;;;16.87;89.90;101052.19;4976618;28;20211;-84
2023/09/15 09:40:44;;;;;;;3.47;2.70;;;;;;;16.96;87.12;101109.03;4977324;28;20209;-83
2023/09/15 09:43:15;;;;;;;4.03;3.43;;;;;;;17.07;86.35;101142.97;4983843;28;20194;-84
2023/09/15 09:45:42;;;;;;;3.17;2.97;;;;;;;17.14;85.71;101159.44;4990339;28;20205;-84
2023/09/15 09:48:11;;;;;;;3.67;3.03;;;;;;;17.25;85.33;101167.84;4980547;28;20751;-82
2023/09/15 09:50:37;;;;;;;3.07;2.83;;;;;;;17.33;84.78;101178.97;4981882;28;20207;-82
2023/09/15 09:53:08;;;;;;;3.10;2.80;;;;;;;17.38;84.04;101184.97;4980590;28;20208;-81
2023/09/15 09:55:35;;;;;;;4.30;2.80;;;;;;;17.46;83.32;101197.88;4978335;28;20682;-82
2023/09/15 09:58:05;;;;;;;3.60;2.73;;;;;;;17.56;83.49;101201.03;4974111;28;20211;-82
2023/09/15 10:00:34;;;;;;;6.47;3.27;;;;;;;17.58;84.55;101183.38;4980510;28;20214;-84
2023/09/15 10:03:00;;;;;;;3.90;3.13;;;;;;;17.67;82.49;101206.81;4981527;28;20207;-83
2023/09/15 10:05:31;;;;;;;3.30;2.80;;;;;;;17.75;80.83;101249.63;4982761;28;20212;-83
2023/09/15 10:07:58;;;;;;;3.67;3.37;;;;;;;17.76;80.94;101256.66;4985126;28;20732;-82
2023/09/15 10:10:26;;;;;;;3.03;2.57;;;;;;;17.80;80.92;101252.09;4986590;28;20210;-83
2023/09/15 10:12:52;;;;;;;3.27;2.90;;;;;;;17.91;79.11;101283.47;4986195;28;20221;-84
2023/09/15 10:15:19;;;;;;;4.90;2.87;;;;;;;18.01;78.31;101308.63;4986909;28;20584;-83
2023/09/15 10:17:46;;;;;;;3.77;2.90;;;;;;;18.09;78.16;101329.50;4986520;28;20245;-85
2023/09/15 10:20:12;;;;;;;3.30;2.40;;;;;;;18.16;78.49;101315.16;4986977;28;20218;-84
2023/09/15 10:22:40;;;;;;;3.07;2.60;;;;;;;18.18;80.45;101274.53;4989542;28;20206;-85
2023/09/15 10:25:15;;;;;;;3.57;2.63;;;;;;;18.25;81.89;101220.53;4994303;28;20242;-83
2023/09/15 10:27:42;;;;;;;2.93;2.60;;;;;;;18.36;78.97;101261.53;4998745;28;20269;-84
2023/09/15 10:30:10;;;;;;;5.33;2.90;;;;;;;18.45;78.55;101279.69;4999051;28;20205;-85
2023/09/15 10:32:38;;;;;;;3.27;2.97;;;;;;;18.45;79.16;101283.22;5004132;28;20189;-84
2023/09/15 10:35:06;;;;;;;3.10;2.73;;;;;;;18.59;79.37;101266.81;5001108;28;20218;-84
2023/09/15 10:37:33;;;;;;;2.90;2.50;;;;;;;18.62;78.39;101286.97;4996063;28;20205;-82
2023/09/15 10:40:01;;;;;;;3.50;2.60;;;;;;;18.67;77.46;101311.44;4982004;28;20218;-82
2023/09/15 10:42:27;;;;;;;3.07;2.80;;;;;;;18.77;79.84;101259.94;4980651;28;20210;-83
2023/09/15 10:44:54;;;;;;;2.90;2.70;;;;;;;18.82;78.50;101265.06;4982418;28;20711;-82
2023/09/15 10:47:21;;;;;;;3.90;2.97;;;;;;;18.95;75.64;101313.91;4978019;28;20241;-83
2023/09/15 10:49:52;;;;;;;3.53;3.13;;;;;;;19.03;75.41;101345.38;4978233;28;20222;-82
2023/09/15 10:52:19;;;;;;;3.23;2.80;;;;;;;19.05;74.78;101351.47;4976549;28;20212;-82
2023/09/15 10:54:49;;;;;;;3.90;2.77;;;;;;;19.17;76.33;101334.22;4981233;28;20230;-82
2023/09/15 10:57:18;;;;;;;5.83;2.73;;;;;;;19.29;76.07;101315.19;4977725;28;20437;-77
2023/09/15 10:59:44;;;;;;;3.90;2.83;;;;;;;19.39;75.27;101327.13;4975996;28;20648;-82
2023/09/15 11:02:12;;;;;;;3.67;2.73;;;;;;;19.50;73.32;101373.47;4977085;28;20223;-81
2023/09/15 11:04:38;;;;;;;3.83;2.70;;;;;;;19.59;72.55;101395.16;4975392;28;20739;-82
2023/09/15 11:07:07;;;;;;;3.30;2.80;;;;;;;19.67;71.37;101439.84;4975908;28;20612;-80
2023/09/15 11:09:33;;;;;;;3.17;2.87;;;;;;;19.82;74.47;101410.13;4976586;28;20211;-82
2023/09/15 11:12:02;;;;;;;2.83;2.47;;;;;;;20.03;73.40;101381.81;4976235;28;20215;-80
2023/09/15 11:14:29;;;;;;;2.97;2.67;;;;;;;20.16;73.21;101392.78;4976912;28;20285;-82
2023/09/15 11:16:57;;;;;;;3.27;2.97;;;;;;;20.35;72.25;101381.34;4977484;28;20748;-80
2023/09/15 11:19:25;;;;;;;3.07;2.60;;;;;;;20.57;72.34;101399.78;4975329;28;20220;-82
2023/09/15 11:21:52;;;;;;;2.67;2.40;;;;;;;20.78;68.81;101451.06;4976701;28;20237;-80
2023/09/15 11:24:18;;;;;;;3.77;2.97;;;;;;;20.96;67.33;101503.31;4976183;28;20232;-82